Time;durP1;ratioP1;P1;durP2;ratioP2;P2;SDS_P1;SDS_P2;PMS_P1;PMS_P2;Temp;Humidity;BMP_temperature;BMP_pressure;BME280_temperature;BME280_humidity;BME280_pressure;Samples;Min_cycle;Max_cycle;Signal;HPM_P1;HPM_P2
2024/04/08 00:04:02;;;;;;;4.18;3.72;;;;;;;;;;10546299;28;20053;-62
2024/04/08 00:09:06;;;;;;;4.90;3.83;;;;;;;;;;10543647;28;20040;-63
2024/04/08 00:14:07;;;;;;;5.65;3.50;;;;;;;;;;10540929;28;20027;-62
2024/04/08 00:19:08;;;;;;;4.05;3.65;;;;;;;;;;10541097;28;20478;-62
2024/04/08 00:24:08;;;;;;;6.03;3.72;;;;;;;;;;10559855;28;20020;-63
2024/04/08 00:29:09;;;;;;;3.42;3.10;;;;;;;;;;10560364;28;20073;-62
2024/04/08 00:34:09;;;;;;;4.18;3.67;;;;;;;;;;10556862;28;20027;-62
2024/04/08 00:39:10;;;;;;;3.75;3.38;;;;;;;;;;10564898;28;20035;-63
2024/04/08 00:44:10;;;;;;;3.92;3.53;;;;;;;;;;10577299;28;20031;-63
2024/04/08 00:49:11;;;;;;;4.75;3.50;;;;;;;;;;10565557;28;20028;-63
2024/04/08 00:54:12;;;;;;;3.80;3.50;;;;;;;;;;10562216;28;20091;-62
2024/04/08 00:59:15;;;;;;;3.83;3.20;;;;;;;;;;10558844;28;20097;-63
2024/04/08 01:04:16;;;;;;;3.47;3.17;;;;;;;;;;10570616;28;20028;-63
2024/04/08 01:09:16;;;;;;;3.97;3.42;;;;;;;;;;10565641;28;20293;-63
2024/04/08 01:14:17;;;;;;;3.97;3.60;;;;;;;;;;10563830;28;20046;-63
2024/04/08 01:19:23;;;;;;;4.63;3.05;;;;;;;;;;10559934;28;20042;-63
2024/04/08 01:24:24;;;;;;;3.45;3.15;;;;;;;;;;10573295;28;20115;-63
2024/04/08 01:29:24;;;;;;;7.53;3.50;;;;;;;;;;10576618;28;20031;-63
2024/04/08 01:34:25;;;;;;;4.10;3.40;;;;;;;;;;10576086;28;20073;-63
2024/04/08 01:39:26;;;;;;;3.53;3.22;;;;;;;;;;10564095;28;20032;-63
2024/04/08 01:44:26;;;;;;;5.72;3.35;;;;;;;;;;10570103;28;20027;-63
2024/04/08 01:49:27;;;;;;;3.78;2.92;;;;;;;;;;10566378;28;20043;-63
2024/04/08 01:54:37;;;;;;;3.28;2.97;;;;;;;;;;10565997;28;20031;-63
2024/04/08 01:59:37;;;;;;;3.30;3.00;;;;;;;;;;10565111;28;20044;-63
2024/04/08 02:04:38;;;;;;;4.32;3.33;;;;;;;;;;10566273;28;20024;-63
2024/04/08 02:09:39;;;;;;;5.07;3.13;;;;;;;;;;10553071;28;20050;-63
2024/04/08 02:14:39;;;;;;;3.72;3.42;;;;;;;;;;10550807;28;20092;-63
2024/04/08 02:19:40;;;;;;;3.13;2.83;;;;;;;;;;10547361;28;20035;-64
2024/04/08 02:24:41;;;;;;;3.55;3.25;;;;;;;;;;10565036;27;20080;-62
2024/04/08 02:29:42;;;;;;;4.72;3.42;;;;;;;;;;10566781;28;20483;-62
2024/04/08 02:34:43;;;;;;;3.50;3.20;;;;;;;;;;10572962;28;20027;-63
2024/04/08 02:39:44;;;;;;;3.30;3.00;;;;;;;;;;10565774;28;20337;-62
2024/04/08 02:44:45;;;;;;;3.00;2.80;;;;;;;;;;10563801;28;20031;-62
2024/04/08 02:49:45;;;;;;;3.35;3.05;;;;;;;;;;10561378;28;20032;-62
2024/04/08 02:54:46;;;;;;;3.15;2.90;;;;;;;;;;10555091;28;20028;-62
2024/04/08 02:59:49;;;;;;;3.15;2.95;;;;;;;;;;10554685;28;20046;-62
2024/04/08 03:04:53;;;;;;;3.40;3.08;;;;;;;;;;10557127;28;20031;-62
2024/04/08 03:09:54;;;;;;;3.75;2.88;;;;;;;;;;10556980;28;20051;-62
2024/04/08 03:14:56;;;;;;;3.65;3.00;;;;;;;;;;10550194;28;20546;-62
2024/04/08 03:19:58;;;;;;;3.40;3.10;;;;;;;;;;10540560;28;20448;-62
2024/04/08 03:24:58;;;;;;;2.88;2.58;;;;;;;;;;10538650;28;20021;-62
2024/04/08 03:29:59;;;;;;;4.85;2.88;;;;;;;;;;10551162;28;20030;-62
2024/04/08 03:34:59;;;;;;;4.20;3.10;;;;;;;;;;10569280;28;20058;-62
2024/04/08 03:40:00;;;;;;;4.28;3.10;;;;;;;;;;10551097;28;20243;-63
2024/04/08 03:45:01;;;;;;;3.05;2.80;;;;;;;;;;10558621;28;20028;-62
2024/04/08 03:50:02;;;;;;;2.95;2.70;;;;;;;;;;10570782;27;20028;-62
2024/04/08 03:55:03;;;;;;;3.08;2.78;;;;;;;;;;10568613;28;20418;-62
2024/04/08 04:00:05;;;;;;;3.10;2.80;;;;;;;;;;10568660;28;20036;-62
2024/04/08 04:05:06;;;;;;;3.28;2.90;;;;;;;;;;10555745;28;20126;-62
2024/04/08 04:10:08;;;;;;;2.85;2.65;;;;;;;;;;10540863;28;20047;-63
2024/04/08 04:15:11;;;;;;;3.67;2.83;;;;;;;;;;10548182;28;20027;-62
2024/04/08 04:20:16;;;;;;;3.08;2.83;;;;;;;;;;10538776;28;20110;-62
2024/04/08 04:25:17;;;;;;;3.22;2.92;;;;;;;;;;10548584;28;20142;-62
2024/04/08 04:30:17;;;;;;;2.90;2.70;;;;;;;;;;10568071;28;20028;-62
2024/04/08 04:35:18;;;;;;;2.75;2.55;;;;;;;;;;10566372;28;20019;-62
2024/04/08 04:40:18;;;;;;;2.78;2.58;;;;;;;;;;10564099;28;20024;-62
2024/04/08 04:45:21;;;;;;;2.80;2.60;;;;;;;;;;10552166;28;20078;-63
2024/04/08 04:50:21;;;;;;;3.33;2.97;;;;;;;;;;10537225;28;20123;-62
2024/04/08 04:55:22;;;;;;;3.72;2.67;;;;;;;;;;10534771;28;20035;-63
2024/04/08 05:00:25;;;;;;;3.05;2.85;;;;;;;;;;10539849;28;20031;-63
2024/04/08 05:05:26;;;;;;;2.78;2.58;;;;;;;;;;10546701;28;20129;-63
2024/04/08 05:10:27;;;;;;;3.28;2.97;;;;;;;;;;10536503;28;20435;-63
2024/04/08 05:15:27;;;;;;;3.17;2.90;;;;;;;;;;10538328;28;20032;-63
2024/04/08 05:20:29;;;;;;;3.65;2.70;;;;;;;;;;10533541;28;20028;-63
2024/04/08 05:25:30;;;;;;;2.70;2.50;;;;;;;;;;10550459;28;20140;-63
2024/04/08 05:30:30;;;;;;;4.88;2.47;;;;;;;;;;10571906;28;20027;-63
2024/04/08 05:35:31;;;;;;;3.05;2.75;;;;;;;;;;10574304;28;20032;-63
2024/04/08 05:40:36;;;;;;;2.88;2.67;;;;;;;;;;10554183;28;20423;-62
2024/04/08 05:45:37;;;;;;;3.40;3.03;;;;;;;;;;10562317;28;20436;-63
2024/04/08 05:50:37;;;;;;;3.75;2.67;;;;;;;;;;10558230;28;20032;-64
2024/04/08 05:55:38;;;;;;;3.53;3.20;;;;;;;;;;10557452;28;20048;-64
2024/04/08 06:00:39;;;;;;;2.60;2.38;;;;;;;;;;10553810;28;20036;-65
2024/04/08 06:05:44;;;;;;;3.13;2.65;;;;;;;;;;10558141;28;20460;-62
2024/04/08 06:10:50;;;;;;;9.13;4.43;;;;;;;;;;10550790;28;20218;-62
2024/04/08 06:15:50;;;;;;;6.68;3.53;;;;;;;;;;10543676;28;20019;-62
2024/04/08 06:20:58;;;;;;;7.57;3.92;;;;;;;;;;10553840;28;20024;-62
2024/04/08 06:26:03;;;;;;;6.72;3.88;;;;;;;;;;10558883;28;20479;-62
2024/04/08 06:31:03;;;;;;;8.50;4.53;;;;;;;;;;10556545;28;20034;-62
2024/04/08 06:36:04;;;;;;;6.22;3.95;;;;;;;;;;10556910;28;20020;-62
2024/04/08 06:41:05;;;;;;;17.05;5.10;;;;;;;;;;10567493;28;20039;-61
2024/04/08 06:46:05;;;;;;;12.57;5.32;;;;;;;;;;10573593;28;20023;-61
2024/04/08 06:51:06;;;;;;;10.25;5.13;;;;;;;;;;10562830;28;20036;-62
2024/04/08 06:56:07;;;;;;;12.02;6.43;;;;;;;;;;10559033;27;20035;-62
2024/04/08 07:01:08;;;;;;;8.13;6.05;;;;;;;;;;10563629;28;20399;-61
2024/04/08 07:06:08;;;;;;;9.52;5.55;;;;;;;;;;10563096;28;20035;-62
2024/04/08 07:11:09;;;;;;;11.27;5.95;;;;;;;;;;10572682;28;20039;-61
2024/04/08 07:16:09;;;;;;;6.97;5.22;;;;;;;;;;10571887;28;20043;-62
2024/04/08 07:21:10;;;;;;;10.93;6.57;;;;;;;;;;10566528;28;20031;-62
2024/04/08 07:26:11;;;;;;;9.40;5.63;;;;;;;;;;10568602;27;20048;-62
2024/04/08 07:31:12;;;;;;;10.38;5.70;;;;;;;;;;10565018;28;20432;-62
2024/04/08 07:36:12;;;;;;;9.30;5.25;;;;;;;;;;10550381;28;20023;-62
2024/04/08 07:41:13;;;;;;;7.82;5.70;;;;;;;;;;10571721;28;20028;-62
2024/04/08 07:46:14;;;;;;;9.30;6.68;;;;;;;;;;10562578;28;20023;-62
2024/04/08 07:51:15;;;;;;;8.75;5.63;;;;;;;;;;10558986;28;20043;-62
2024/04/08 07:56:16;;;;;;;7.10;6.28;;;;;;;;;;10571284;28;20048;-62
2024/04/08 08:01:16;;;;;;;14.07;7.10;;;;;;;;;;10550178;28;20032;-62
2024/04/08 08:06:17;;;;;;;9.48;6.30;;;;;;;;;;10536123;28;20497;-62
2024/04/08 08:11:17;;;;;;;12.07;5.90;;;;;;;;;;10554406;27;20059;-62
2024/04/08 08:16:18;;;;;;;8.60;6.65;;;;;;;;;;10554531;28;20653;-62
2024/04/08 08:21:19;;;;;;;13.52;8.10;;;;;;;;;;10545518;28;20027;-62
2024/04/08 08:26:19;;;;;;;11.00;8.13;;;;;;;;;;10538991;28;20024;-62
2024/04/08 08:31:23;;;;;;;12.02;8.65;;;;;;;;;;10559585;28;20043;-63
2024/04/08 08:36:24;;;;;;;14.98;8.60;;;;;;;;;;10557556;27;20038;-61
2024/04/08 08:41:30;;;;;;;7.82;6.20;;;;;;;;;;10542693;28;20413;-60
2024/04/08 08:46:31;;;;;;;16.80;7.57;;;;;;;;;;10543869;28;20027;-62
2024/04/08 08:51:32;;;;;;;10.27;6.75;;;;;;;;;;10542807;28;20035;-62
2024/04/08 08:56:33;;;;;;;10.60;6.32;;;;;;;;;;10552979;28;20028;-60
2024/04/08 09:01:34;;;;;;;7.90;6.00;;;;;;;;;;10557039;28;20015;-60
2024/04/08 09:06:35;;;;;;;9.73;6.82;;;;;;;;;;10554423;28;20036;-61
2024/04/08 09:11:49;;;;;;;7.95;6.38;;;;;;;;;;10558215;28;21259;-61
2024/04/08 09:16:51;;;;;;;6.65;5.90;;;;;;;;;;10556419;28;20024;-61
2024/04/08 09:21:52;;;;;;;10.70;6.05;;;;;;;;;;10554349;27;20032;-62
2024/04/08 09:26:54;;;;;;;11.10;5.63;;;;;;;;;;10547017;28;20455;-62
2024/04/08 09:32:00;;;;;;;13.57;5.80;;;;;;;;;;10544125;28;20027;-62
2024/04/08 09:37:03;;;;;;;13.93;5.93;;;;;;;;;;10558331;28;20024;-61
2024/04/08 09:42:04;;;;;;;8.25;5.60;;;;;;;;;;10571775;28;20059;-61
2024/04/08 09:47:09;;;;;;;6.20;5.55;;;;;;;;;;10542255;28;20024;-60
2024/04/08 09:52:12;;;;;;;9.40;5.68;;;;;;;;;;10533809;28;20201;-62
2024/04/08 09:57:15;;;;;;;8.40;5.60;;;;;;;;;;10547776;28;20123;-61
2024/04/08 10:02:42;;;;;;;13.20;5.60;;;;;;;;;;10543249;28;20242;-61
2024/04/08 10:07:48;;;;;;;6.32;5.20;;;;;;;;;;10551965;28;20055;-61
2024/04/08 10:12:50;;;;;;;7.00;5.82;;;;;;;;;;10545368;28;20461;-61
2024/04/08 10:17:52;;;;;;;8.57;5.68;;;;;;;;;;10534653;28;20020;-61
2024/04/08 10:22:52;;;;;;;5.75;5.03;;;;;;;;;;10545949;28;20050;-62
2024/04/08 10:28:05;;;;;;;6.97;5.60;;;;;;;;;;10550916;28;20020;-61
2024/04/08 10:33:07;;;;;;;15.75;5.53;;;;;;;;;;10559267;27;20469;-62
2024/04/08 10:38:08;;;;;;;6.30;4.78;;;;;;;;;;10565540;28;20367;-61
2024/04/08 10:43:08;;;;;;;10.43;5.88;;;;;;;;;;10563268;28;20036;-60
2024/04/08 10:48:11;;;;;;;17.42;5.68;;;;;;;;;;10567733;27;20030;-61
2024/04/08 10:53:12;;;;;;;8.05;5.20;;;;;;;;;;10548961;28;20036;-61
2024/04/08 10:58:14;;;;;;;6.47;4.85;;;;;;;;;;10568373;27;20028;-61
2024/04/08 11:03:14;;;;;;;6.78;5.03;;;;;;;;;;10562954;28;20045;-61
2024/04/08 11:08:16;;;;;;;6.20;5.18;;;;;;;;;;10559612;28;20496;-61
2024/04/08 11:13:16;;;;;;;6.78;5.32;;;;;;;;;;10551895;28;20050;-61
2024/04/08 11:18:21;;;;;;;11.32;5.38;;;;;;;;;;10551304;28;20023;-61
2024/04/08 11:23:21;;;;;;;6.18;4.72;;;;;;;;;;10572587;27;20119;-61
2024/04/08 11:28:25;;;;;;;11.20;5.15;;;;;;;;;;10575769;27;20418;-62
2024/04/08 11:33:26;;;;;;;8.52;5.07;;;;;;;;;;10564614;27;20071;-61
2024/04/08 11:38:26;;;;;;;6.38;4.50;;;;;;;;;;10562041;27;20032;-61
2024/04/08 11:43:27;;;;;;;8.65;5.25;;;;;;;;;;10570353;27;20028;-60
2024/04/08 11:48:28;;;;;;;7.55;6.13;;;;;;;;;;10588102;27;20462;-61
2024/04/08 11:53:28;;;;;;;7.47;5.80;;;;;;;;;;10557830;27;20036;-61
2024/04/08 11:58:29;;;;;;;6.68;5.15;;;;;;;;;;10570175;27;20065;-61
2024/04/08 12:03:29;;;;;;;8.63;5.38;;;;;;;;;;10480882;23;20455;-59
2024/04/08 12:08:32;;;;;;;9.35;5.53;;;;;;;;;;10439591;28;20481;-59
2024/04/08 12:13:33;;;;;;;8.35;5.78;;;;;;;;;;10390591;28;20042;-58
2024/04/08 12:19:49;;;;;;;11.73;5.90;;;;;;;;;;11389571;25;20462;-58
2024/04/08 12:24:50;;;;;;;7.00;5.47;;;;;;;;;;11317375;26;19997;-58
2024/04/08 12:29:53;;;;;;;8.13;6.25;;;;;;;;;;11301922;26;20082;-58
2024/04/08 12:34:54;;;;;;;8.10;5.72;;;;;;;;;;11307649;26;20005;-58
2024/04/08 12:39:55;;;;;;;10.10;6.30;;;;;;;;;;11277277;26;19995;-58
2024/04/08 12:44:56;;;;;;;9.50;5.80;;;;;;;;;;11296785;26;19999;-58
2024/04/08 12:49:57;;;;;;;7.88;5.32;;;;;;;;;;11276378;26;20008;-58
2024/04/08 12:54:59;;;;;;;10.27;5.88;;;;;;;;;;11282842;26;20009;-57
2024/04/08 13:00:00;;;;;;;10.15;6.10;;;;;;;;;;11297733;26;19995;-57
2024/04/08 13:05:01;;;;;;;13.05;6.13;;;;;;;;;;11280233;26;19999;-57
2024/04/08 13:10:02;;;;;;;8.68;6.25;;;;;;;;;;11274200;26;20049;-58
2024/04/08 13:15:04;;;;;;;10.15;6.82;;;;;;;;;;11284578;26;20075;-59
2024/04/08 13:20:06;;;;;;;16.65;11.57;;;;;;;;;;11254867;26;19995;-58
2024/04/08 13:25:07;;;;;;;18.50;15.18;;;;;;;;;;11287756;26;20013;-56
2024/04/08 13:30:11;;;;;;;27.73;17.50;;;;;;;;;;11260277;26;20671;-58
2024/04/08 13:35:13;;;;;;;22.65;16.33;;;;;;;;;;11261351;26;20003;-58
2024/04/08 13:40:14;;;;;;;31.30;19.20;;;;;;;;;;11249279;26;20400;-57
2024/04/08 13:45:15;;;;;;;30.08;20.30;;;;;;;;;;11263084;26;20067;-56
2024/04/08 13:50:16;;;;;;;28.58;18.73;;;;;;;;;;11269221;26;20013;-57
2024/04/08 13:55:17;;;;;;;31.75;21.15;;;;;;;;;;11237008;26;20241;-58
2024/04/08 14:00:19;;;;;;;33.60;20.75;;;;;;;;;;11238054;26;20194;-56
2024/04/08 14:05:20;;;;;;;32.08;20.63;;;;;;;;;;11229938;26;20428;-58
2024/04/08 14:10:21;;;;;;;30.50;21.85;;;;;;;;;;11248173;26;20002;-58
2024/04/08 14:15:22;;;;;;;26.98;20.27;;;;;;;;;;11276555;26;20550;-57
2024/04/08 14:20:23;;;;;;;34.20;20.88;;;;;;;;;;11278875;26;20049;-57
2024/04/08 14:25:24;;;;;;;25.75;19.45;;;;;;;;;;11260432;26;20554;-57
2024/04/08 14:30:25;;;;;;;29.08;20.40;;;;;;;;;;11267709;26;20075;-57
2024/04/08 14:35:27;;;;;;;29.83;20.80;;;;;;;;;;11236136;26;19999;-56
2024/04/08 14:40:28;;;;;;;28.23;20.20;;;;;;;;;;11250062;26;20075;-58
2024/04/08 14:45:30;;;;;;;31.13;19.63;;;;;;;;;;11257668;26;20192;-57
2024/04/08 14:50:31;;;;;;;28.80;20.35;;;;;;;;;;11270216;26;20447;-58
2024/04/08 14:55:32;;;;;;;30.83;19.85;;;;;;;;;;11237764;26;20079;-57
2024/04/08 15:00:33;;;;;;;27.10;19.60;;;;;;;;;;11264331;26;19999;-56
2024/04/08 15:05:34;;;;;;;27.38;20.70;;;;;;;;;;11261328;26;19999;-57
2024/04/08 15:10:35;;;;;;;33.17;20.60;;;;;;;;;;11264593;26;20506;-58
2024/04/08 15:15:37;;;;;;;40.15;21.00;;;;;;;;;;11258796;26;20003;-58
2024/04/08 15:20:38;;;;;;;35.25;22.27;;;;;;;;;;11277934;26;20412;-57
2024/04/08 15:25:40;;;;;;;30.88;20.48;;;;;;;;;;11290122;26;20015;-58
2024/04/08 15:30:41;;;;;;;28.08;19.10;;;;;;;;;;11280910;26;19998;-58
2024/04/08 15:35:42;;;;;;;27.10;19.65;;;;;;;;;;11278493;26;20562;-57
2024/04/08 15:40:55;;;;;;;27.13;19.00;;;;;;;;;;11293985;26;20010;-58
2024/04/08 15:46:04;;;;;;;26.38;17.52;;;;;;;;;;11244664;26;20018;-59
2024/04/08 15:51:06;;;;;;;28.75;17.58;;;;;;;;;;11247962;26;20543;-58
2024/04/08 15:56:07;;;;;;;26.20;16.67;;;;;;;;;;11230063;26;20084;-58
2024/04/08 16:01:08;;;;;;;29.20;16.70;;;;;;;;;;11260017;26;20002;-58
2024/04/08 16:06:12;;;;;;;27.48;18.40;;;;;;;;;;11246329;26;20002;-58
2024/04/08 16:11:21;;;;;;;26.13;16.50;;;;;;;;;;11259448;26;19995;-58
2024/04/08 16:16:22;;;;;;;26.73;16.65;;;;;;;;;;11249080;26;19999;-58
2024/04/08 16:21:24;;;;;;;28.70;15.95;;;;;;;;;;11261807;26;20059;-58
2024/04/08 16:26:25;;;;;;;24.33;15.50;;;;;;;;;;11261101;26;20009;-58
2024/04/08 16:31:26;;;;;;;24.85;16.10;;;;;;;;;;11262204;26;19998;-58
2024/04/08 16:36:28;;;;;;;26.48;15.77;;;;;;;;;;11242367;26;20009;-58
2024/04/08 16:41:30;;;;;;;18.90;13.68;;;;;;;;;;11241608;26;20006;-58
2024/04/08 16:46:32;;;;;;;25.35;14.77;;;;;;;;;;11245305;26;20014;-58
2024/04/08 16:51:34;;;;;;;24.63;14.25;;;;;;;;;;11228481;26;19996;-58
2024/04/08 16:56:35;;;;;;;20.17;13.93;;;;;;;;;;11228034;26;20004;-58
2024/04/08 17:01:37;;;;;;;19.13;13.30;;;;;;;;;;11223913;26;20080;-58
2024/04/08 17:06:50;;;;;;;22.88;13.90;;;;;;;;;;11255471;26;19996;-58
2024/04/08 17:11:52;;;;;;;24.98;14.93;;;;;;;;;;11253014;26;20319;-58
2024/04/08 17:16:54;;;;;;;23.38;13.65;;;;;;;;;;11242909;26;19999;-58
2024/04/08 17:21:56;;;;;;;20.30;13.38;;;;;;;;;;11233331;26;20013;-59
2024/04/08 17:26:57;;;;;;;21.48;13.60;;;;;;;;;;11282715;26;20357;-58
2024/04/08 17:31:58;;;;;;;21.35;14.13;;;;;;;;;;11286935;26;20017;-59
2024/04/08 17:37:00;;;;;;;21.10;14.50;;;;;;;;;;11243676;26;20003;-58
2024/04/08 17:42:01;;;;;;;28.75;14.98;;;;;;;;;;11272369;26;20038;-58
2024/04/08 17:47:02;;;;;;;29.83;14.00;;;;;;;;;;11266789;26;20006;-57
2024/04/08 17:52:03;;;;;;;21.65;14.38;;;;;;;;;;11267250;26;20048;-59
2024/04/08 17:57:04;;;;;;;27.70;14.27;;;;;;;;;;11262845;26;20002;-58
2024/04/08 18:02:06;;;;;;;26.17;13.45;;;;;;;;;;11254861;26;20465;-58
2024/04/08 18:07:07;;;;;;;31.55;15.40;;;;;;;;;;11264269;26;20231;-58
2024/04/08 18:12:09;;;;;;;26.23;14.73;;;;;;;;;;11264933;26;20014;-58
2024/04/08 18:17:10;;;;;;;20.02;12.60;;;;;;;;;;11273592;26;20010;-59
2024/04/08 18:22:11;;;;;;;20.58;13.18;;;;;;;;;;11209741;26;20004;-58
2024/04/08 18:27:12;;;;;;;21.15;14.13;;;;;;;;;;11262087;26;19999;-59
2024/04/08 18:32:13;;;;;;;24.63;13.38;;;;;;;;;;11222983;26;20002;-58
2024/04/08 18:37:14;;;;;;;19.60;12.30;;;;;;;;;;11227347;26;20023;-58
2024/04/08 18:42:15;;;;;;;17.77;11.98;;;;;;;;;;11257284;26;20186;-57
2024/04/08 18:47:16;;;;;;;23.40;13.57;;;;;;;;;;11255597;26;20465;-57
2024/04/08 18:52:17;;;;;;;34.25;15.48;;;;;;;;;;11258854;26;20070;-58
2024/04/08 18:57:19;;;;;;;33.80;15.35;;;;;;;;;;11240889;26;20070;-58
2024/04/08 19:02:20;;;;;;;36.60;13.77;;;;;;;;;;11246084;26;19998;-59
2024/04/08 19:07:22;;;;;;;28.27;13.50;;;;;;;;;;11233606;26;20014;-58
2024/04/08 19:12:23;;;;;;;25.73;13.50;;;;;;;;;;11247839;26;20034;-59
2024/04/08 19:17:24;;;;;;;27.85;12.95;;;;;;;;;;11244050;26;20075;-58
2024/04/08 19:22:25;;;;;;;31.38;12.95;;;;;;;;;;11251356;26;20308;-59
2024/04/08 19:27:27;;;;;;;21.35;11.23;;;;;;;;;;11221579;26;19995;-58
2024/04/08 19:32:28;;;;;;;21.20;11.75;;;;;;;;;;11259266;26;19994;-58
2024/04/08 19:37:29;;;;;;;20.10;10.55;;;;;;;;;;11239860;26;20473;-59
2024/04/08 19:42:30;;;;;;;24.65;11.18;;;;;;;;;;11251371;26;20197;-58
2024/04/08 19:47:31;;;;;;;21.05;11.02;;;;;;;;;;11250033;26;20159;-58
2024/04/08 19:52:33;;;;;;;19.15;11.20;;;;;;;;;;11247088;26;20002;-58
2024/04/08 19:57:34;;;;;;;20.55;9.88;;;;;;;;;;11233682;26;20011;-58
2024/04/08 20:02:39;;;;;;;22.65;9.98;;;;;;;;;;11239767;26;20725;-59
2024/04/08 20:07:40;;;;;;;23.15;11.07;;;;;;;;;;11230124;26;19994;-59
2024/04/08 20:12:41;;;;;;;22.60;9.93;;;;;;;;;;11252748;26;20055;-58
2024/04/08 20:17:42;;;;;;;15.93;9.50;;;;;;;;;;11247400;26;19995;-59
2024/04/08 20:22:43;;;;;;;19.98;8.88;;;;;;;;;;11253861;26;20374;-58
2024/04/08 20:27:44;;;;;;;20.20;9.98;;;;;;;;;;11236642;26;20069;-58
2024/04/08 20:32:45;;;;;;;16.85;8.18;;;;;;;;;;11211823;26;20031;-59
2024/04/08 20:37:47;;;;;;;16.27;8.68;;;;;;;;;;11208756;26;20015;-59
2024/04/08 20:42:48;;;;;;;17.88;8.48;;;;;;;;;;11240160;26;20003;-58
2024/04/08 20:47:49;;;;;;;14.07;8.85;;;;;;;;;;11258714;26;20002;-58
2024/04/08 20:52:51;;;;;;;16.48;8.35;;;;;;;;;;11236419;26;19996;-58
2024/04/08 20:57:53;;;;;;;16.35;8.63;;;;;;;;;;11215765;26;20000;-58
2024/04/08 21:02:54;;;;;;;16.05;8.55;;;;;;;;;;11244492;26;20027;-58
2024/04/08 21:07:56;;;;;;;12.57;7.45;;;;;;;;;;11256775;26;20368;-58
2024/04/08 21:12:58;;;;;;;13.88;8.02;;;;;;;;;;11234411;26;20011;-58
2024/04/08 21:17:59;;;;;;;14.40;7.47;;;;;;;;;;11234972;26;20002;-58
2024/04/08 21:23:00;;;;;;;12.68;7.45;;;;;;;;;;11249227;26;20399;-60
2024/04/08 21:28:01;;;;;;;12.77;8.13;;;;;;;;;;11259160;26;20042;-53
2024/04/08 21:33:02;;;;;;;14.02;7.70;;;;;;;;;;11259566;26;20042;-56
2024/04/08 21:38:04;;;;;;;13.90;7.32;;;;;;;;;;11236867;26;20011;-59
2024/04/08 21:43:05;;;;;;;15.05;7.40;;;;;;;;;;11249454;26;20422;-60
2024/04/08 21:48:06;;;;;;;8.05;6.20;;;;;;;;;;11234382;26;20101;-59
2024/04/08 21:53:07;;;;;;;12.13;7.03;;;;;;;;;;11274733;26;20094;-59
2024/04/08 21:58:09;;;;;;;11.48;7.88;;;;;;;;;;11247593;26;20000;-53
2024/04/08 22:03:10;;;;;;;11.38;7.25;;;;;;;;;;11248915;26;20072;-57
2024/04/08 22:08:11;;;;;;;14.02;7.53;;;;;;;;;;11244937;26;19996;-59
2024/04/08 22:13:12;;;;;;;10.43;7.10;;;;;;;;;;11255369;26;19995;-58
2024/04/08 22:18:13;;;;;;;14.20;7.40;;;;;;;;;;11263223;26;20071;-50
2024/04/08 22:23:14;;;;;;;10.52;6.22;;;;;;;;;;11262538;26;20100;-50
2024/04/08 22:28:15;;;;;;;13.82;6.75;;;;;;;;;;11247822;26;20738;-56
2024/04/08 22:33:17;;;;;;;9.70;6.28;;;;;;;;;;11248954;26;20089;-57
2024/04/08 22:38:18;;;;;;;14.23;7.13;;;;;;;;;;11243616;26;20042;-58
2024/04/08 22:43:19;;;;;;;17.08;6.85;;;;;;;;;;11241950;26;20011;-57
2024/04/08 22:48:20;;;;;;;11.73;6.43;;;;;;;;;;11218910;26;20049;-57
2024/04/08 22:53:24;;;;;;;14.95;7.18;;;;;;;;;;11251757;26;20032;-56
2024/04/08 22:58:25;;;;;;;10.95;6.63;;;;;;;;;;11246760;26;20014;-54
2024/04/08 23:03:26;;;;;;;11.63;7.07;;;;;;;;;;11251176;26;20038;-56
2024/04/08 23:08:27;;;;;;;8.75;6.15;;;;;;;;;;11243435;26;20052;-56
2024/04/08 23:13:29;;;;;;;13.85;7.00;;;;;;;;;;11237392;26;20056;-59
2024/04/08 23:18:30;;;;;;;9.05;6.32;;;;;;;;;;11243381;26;20096;-58
2024/04/08 23:23:31;;;;;;;12.80;6.60;;;;;;;;;;11266530;26;19995;-57
2024/04/08 23:28:32;;;;;;;13.13;6.32;;;;;;;;;;11251538;26;20116;-58
2024/04/08 23:33:33;;;;;;;9.40;6.43;;;;;;;;;;11255842;26;20010;-60
2024/04/08 23:38:35;;;;;;;12.48;6.35;;;;;;;;;;11251127;26;20465;-58
2024/04/08 23:43:36;;;;;;;9.80;6.35;;;;;;;;;;11238849;26;20075;-58
2024/04/08 23:48:37;;;;;;;8.82;6.03;;;;;;;;;;11265045;26;20454;-58
2024/04/08 23:53:38;;;;;;;8.27;5.28;;;;;;;;;;11241401;26;20002;-56
2024/04/08 23:58:39;;;;;;;11.98;6.25;;;;;;;;;;11254644;26;20246;-59
